createdAt,value
2022-12-11T00:02:12.567Z,12.98
2022-12-11T00:04:39.233Z,12.30
2022-12-11T00:07:05.839Z,12.10
2022-12-11T00:09:32.555Z,13.45
2022-12-11T00:11:59.230Z,13.30
2022-12-11T00:14:25.837Z,13.23
2022-12-11T00:16:52.608Z,12.32
2022-12-11T00:19:19.280Z,11.85
2022-12-11T00:21:46.009Z,13.48
2022-12-11T00:24:12.731Z,12.48
2022-12-11T00:26:39.351Z,12.25
2022-12-11T00:29:05.956Z,11.57
2022-12-11T00:31:32.592Z,11.65
2022-12-11T00:34:01.171Z,11.70
2022-12-11T00:36:27.918Z,11.82
2022-12-11T00:38:54.961Z,11.95
2022-12-11T00:41:21.807Z,11.05
2022-12-11T00:43:48.541Z,10.82
2022-12-11T00:46:15.213Z,10.40
2022-12-11T00:48:42.024Z,11.60
2022-12-11T00:51:08.717Z,11.82
2022-12-11T00:53:35.350Z,11.30
2022-12-11T00:56:02.033Z,11.13
2022-12-11T00:58:28.728Z,10.80
2022-12-11T01:00:55.441Z,11.55
2022-12-11T01:03:22.368Z,11.40
2022-12-11T01:05:55.243Z,11.00
2022-12-11T01:08:22.139Z,11.02
2022-12-11T01:10:48.914Z,11.18
2022-12-11T01:13:15.573Z,10.32
2022-12-11T01:15:44.671Z,10.52
2022-12-11T01:18:12.412Z,11.10
2022-12-11T01:20:40.127Z,10.55
2022-12-11T01:23:06.867Z,10.88
2022-12-11T01:25:35.347Z,10.88
2022-12-11T01:28:01.966Z,11.15
2022-12-11T01:30:28.747Z,10.27
2022-12-11T01:32:55.499Z,10.80
2022-12-11T01:35:22.218Z,10.57
2022-12-11T01:37:48.904Z,9.30
2022-12-11T01:40:16.818Z,10.57
2022-12-11T01:42:43.758Z,9.40
2022-12-11T01:45:24.695Z,10.25
2022-12-11T01:47:59.712Z,10.38
2022-12-11T01:50:26.714Z,9.30
2022-12-11T01:52:53.442Z,10.25
2022-12-11T01:55:20.767Z,9.77
2022-12-11T01:57:49.697Z,9.88
2022-12-11T02:00:16.783Z,10.30
2022-12-11T02:02:44.093Z,10.20
2022-12-11T02:05:11.283Z,10.13
2022-12-11T02:07:43.710Z,9.95
2022-12-11T02:10:12.244Z,9.48
2022-12-11T02:12:51.125Z,9.60
2022-12-11T02:15:22.039Z,9.82
2022-12-11T02:17:51.788Z,9.80
2022-12-11T02:20:18.478Z,9.73
2022-12-11T02:22:48.222Z,9.57
2022-12-11T02:25:24.804Z,10.40
2022-12-11T02:27:56.679Z,9.20
2022-12-11T02:30:23.848Z,10.32
2022-12-11T02:32:53.280Z,10.13
2022-12-11T02:35:22.710Z,9.65
2022-12-11T02:37:54.114Z,9.65
2022-12-11T02:40:22.872Z,10.15
2022-12-11T02:42:50.714Z,9.80
2022-12-11T02:45:18.796Z,10.13
2022-12-11T02:47:47.318Z,10.65
2022-12-11T02:50:15.634Z,11.27
2022-12-11T02:52:42.974Z,10.45
2022-12-11T02:55:12.064Z,10.90
2022-12-11T02:57:50.282Z,11.80
2022-12-11T03:00:17.158Z,10.57
2022-12-11T03:02:44.169Z,10.95
2022-12-11T03:05:11.861Z,11.07
2022-12-11T03:07:39.760Z,10.90
2022-12-11T03:10:07.968Z,11.95
2022-12-11T03:12:36.602Z,11.10
2022-12-11T03:15:04.928Z,11.93
2022-12-11T03:17:38.407Z,11.50
2022-12-11T03:20:13.062Z,11.27
2022-12-11T03:22:46.000Z,11.82
2022-12-11T03:25:18.370Z,11.60
2022-12-11T03:27:48.150Z,11.40
2022-12-11T03:30:17.333Z,12.82
2022-12-11T03:32:47.310Z,12.50
2022-12-11T03:35:26.286Z,12.15
2022-12-11T03:37:53.706Z,11.88
2022-12-11T03:40:21.570Z,13.00
2022-12-11T03:42:50.406Z,12.63
2022-12-11T03:45:18.151Z,13.15
2022-12-11T03:47:45.298Z,12.10
2022-12-11T03:50:13.095Z,12.73
2022-12-11T03:52:46.207Z,12.75
2022-12-11T03:55:14.090Z,12.80
2022-12-11T03:57:40.809Z,12.77
2022-12-11T04:00:08.797Z,13.10
2022-12-11T04:02:38.565Z,12.18
2022-12-11T04:05:05.411Z,12.25
2022-12-11T04:07:32.073Z,12.90
2022-12-11T04:09:58.739Z,12.80
2022-12-11T04:12:25.442Z,13.15
2022-12-11T04:15:04.349Z,12.57
2022-12-11T04:17:53.123Z,12.90
2022-12-11T04:20:38.887Z,12.63
2022-12-11T04:23:24.821Z,12.43
2022-12-11T04:25:51.522Z,11.75
2022-12-11T04:28:18.241Z,11.57
2022-12-11T04:30:48.785Z,12.95
2022-12-11T04:33:15.631Z,11.52
2022-12-11T04:35:42.222Z,13.18
2022-12-11T04:38:08.880Z,12.68
2022-12-11T04:40:35.559Z,13.23
2022-12-11T04:43:02.236Z,12.15
2022-12-11T04:45:28.867Z,12.20
2022-12-11T04:47:55.506Z,12.48
2022-12-11T04:50:22.230Z,13.90
2022-12-11T04:52:48.958Z,13.27
2022-12-11T04:55:15.599Z,14.90
2022-12-11T04:57:42.189Z,14.88
2022-12-11T05:00:11.450Z,15.80
2022-12-11T05:02:38.967Z,15.30
2022-12-11T05:05:06.908Z,14.40
2022-12-11T05:07:33.548Z,14.75
2022-12-11T05:10:00.202Z,13.90
2022-12-11T05:12:26.865Z,14.40
2022-12-11T05:14:54.137Z,12.82
2022-12-11T05:17:21.375Z,11.88
2022-12-11T05:19:49.080Z,10.60
2022-12-11T05:22:15.867Z,11.80
2022-12-11T05:24:42.684Z,11.18
2022-12-11T05:27:10.145Z,10.73
2022-12-11T05:29:37.335Z,10.73
2022-12-11T05:32:04.185Z,10.45
2022-12-11T05:34:30.816Z,11.52
2022-12-11T05:36:57.454Z,11.15
2022-12-11T05:39:24.113Z,10.27
2022-12-11T05:41:50.804Z,11.10
2022-12-11T05:44:17.430Z,11.32
2022-12-11T05:46:44.192Z,10.52
2022-12-11T05:49:10.874Z,11.05
2022-12-11T05:51:39.588Z,11.10
2022-12-11T05:54:06.239Z,11.27
2022-12-11T05:56:34.513Z,11.07
2022-12-11T05:59:01.947Z,11.30
2022-12-11T06:01:32.450Z,10.18
2022-12-11T06:03:59.551Z,10.65
2022-12-11T06:06:26.761Z,10.18
2022-12-11T06:08:54.482Z,10.52
2022-12-11T06:11:24.117Z,11.27
2022-12-11T06:13:52.070Z,10.35
2022-12-11T06:16:19.052Z,9.23
2022-12-11T06:18:45.951Z,9.85
2022-12-11T06:21:14.438Z,9.40
2022-12-11T06:23:41.801Z,10.43
2022-12-11T06:26:08.761Z,10.73
2022-12-11T06:28:35.491Z,9.38
2022-12-11T06:31:02.263Z,10.65
2022-12-11T06:33:29.154Z,11.88
2022-12-11T06:35:56.788Z,11.98
2022-12-11T06:38:23.709Z,10.90
2022-12-11T06:40:56.850Z,9.95
2022-12-11T06:43:23.843Z,11.10
2022-12-11T06:45:51.366Z,10.05
2022-12-11T06:48:18.670Z,7.38
2022-12-11T06:50:45.521Z,6.97
2022-12-11T06:53:12.811Z,7.50
2022-12-11T06:55:43.111Z,7.43
2022-12-11T06:58:10.930Z,7.40
2022-12-11T07:00:38.484Z,8.40
2022-12-11T07:03:05.554Z,9.48
2022-12-11T07:05:32.439Z,7.60
2022-12-11T07:07:59.165Z,7.70
2022-12-11T07:10:25.927Z,10.95
2022-12-11T07:12:53.422Z,13.50
2022-12-11T07:15:20.118Z,10.80
2022-12-11T07:17:46.752Z,10.80
2022-12-11T07:20:13.491Z,10.18
2022-12-11T07:22:46.099Z,9.70
2022-12-11T07:25:13.486Z,8.88
2022-12-11T07:27:41.592Z,9.35
2022-12-11T07:30:08.890Z,10.90
2022-12-11T07:32:35.620Z,9.25
2022-12-11T07:35:02.341Z,10.00
2022-12-11T07:37:29.088Z,10.30
2022-12-11T07:39:55.766Z,10.13
2022-12-11T07:42:22.416Z,10.10
2022-12-11T07:44:49.186Z,10.25
2022-12-11T07:47:15.856Z,10.15
2022-12-11T07:49:42.444Z,10.65
2022-12-11T07:52:10.122Z,11.95
2022-12-11T07:54:36.917Z,12.60
2022-12-11T07:57:03.576Z,11.30
2022-12-11T07:59:30.288Z,10.85
2022-12-11T08:01:56.999Z,10.00
2022-12-11T08:04:23.681Z,12.25
2022-12-11T08:06:51.359Z,10.35
2022-12-11T08:09:21.309Z,10.70
2022-12-11T08:11:48.919Z,12.82
2022-12-11T08:14:15.559Z,11.05
2022-12-11T08:16:44.217Z,10.07
2022-12-11T08:19:11.698Z,8.93
2022-12-11T08:21:38.492Z,10.43
2022-12-11T08:24:05.229Z,11.13
2022-12-11T08:26:32.013Z,12.45
2022-12-11T08:28:58.793Z,12.07
2022-12-11T08:31:25.442Z,11.80
2022-12-11T08:33:52.530Z,9.82
2022-12-11T08:36:20.654Z,9.40
2022-12-11T08:38:47.715Z,9.65
2022-12-11T08:41:15.769Z,8.75
2022-12-11T08:43:42.682Z,9.32
2022-12-11T08:46:11.524Z,8.63
2022-12-11T08:48:39.448Z,8.98
2022-12-11T08:51:07.500Z,9.18
2022-12-11T08:53:34.265Z,12.82
2022-12-11T08:56:02.605Z,10.50
2022-12-11T08:58:29.777Z,9.60
2022-12-11T09:00:56.655Z,8.70
2022-12-11T09:03:23.811Z,8.77
2022-12-11T09:05:50.575Z,10.38
2022-12-11T09:08:17.474Z,9.48
2022-12-11T09:10:44.134Z,10.13
2022-12-11T09:13:10.787Z,11.48
2022-12-11T09:15:40.575Z,11.73
2022-12-11T09:18:07.605Z,11.35
2022-12-11T09:20:34.503Z,11.45
2022-12-11T09:23:01.355Z,11.90
2022-12-11T09:25:28.021Z,11.90
2022-12-11T09:27:54.703Z,11.63
2022-12-11T09:30:21.706Z,11.50
2022-12-11T09:32:48.368Z,10.38
2022-12-11T09:35:15.081Z,11.65
2022-12-11T09:37:41.781Z,11.00
2022-12-11T09:40:10.062Z,11.95
2022-12-11T09:42:39.475Z,12.73
2022-12-11T09:45:10.591Z,12.13
2022-12-11T09:47:41.500Z,12.63
2022-12-11T09:50:11.453Z,14.18
2022-12-11T09:52:58.374Z,13.73
2022-12-11T09:55:25.951Z,12.68
2022-12-11T09:57:59.365Z,12.20
2022-12-11T10:00:33.024Z,11.82
2022-12-11T10:03:22.864Z,11.75
2022-12-11T10:05:53.080Z,11.63
2022-12-11T10:08:36.315Z,12.40
2022-12-11T10:11:21.673Z,12.82
2022-12-11T10:14:01.536Z,15.52
2022-12-11T10:16:44.004Z,14.90
2022-12-11T10:19:22.116Z,11.63
2022-12-11T10:21:50.003Z,12.50
2022-12-11T10:25:10.046Z,12.15
2022-12-11T10:27:31.527Z,12.25
2022-12-11T10:30:15.871Z,13.15
2022-12-11T10:32:42.506Z,12.35
2022-12-11T10:35:12.522Z,12.63
2022-12-11T10:37:39.688Z,12.18
2022-12-11T10:40:06.799Z,12.85
2022-12-11T10:42:33.513Z,11.68
2022-12-11T10:45:01.355Z,11.98
2022-12-11T10:47:28.411Z,12.20
2022-12-11T10:49:58.280Z,12.15
2022-12-11T10:52:26.483Z,11.93
2022-12-11T10:54:56.085Z,11.80
2022-12-11T10:57:28.054Z,12.13
2022-12-11T10:59:55.347Z,11.73
2022-12-11T11:02:24.588Z,12.07
2022-12-11T11:04:51.981Z,11.10
2022-12-11T11:07:18.601Z,11.18
2022-12-11T11:09:45.424Z,11.05
2022-12-11T11:12:23.096Z,11.02
2022-12-11T11:14:59.656Z,11.18
2022-12-11T11:17:29.570Z,12.02
2022-12-11T11:20:04.380Z,11.55
2022-12-11T11:22:31.865Z,12.82
2022-12-11T11:24:59.416Z,14.23
2022-12-11T11:27:33.366Z,13.38
2022-12-11T11:30:01.755Z,12.55
2022-12-11T11:32:33.532Z,11.80
2022-12-11T11:35:26.706Z,12.43
2022-12-11T11:38:04.678Z,11.77
2022-12-11T11:40:36.143Z,13.30
2022-12-11T11:43:30.257Z,12.15
2022-12-11T11:46:00.045Z,12.23
2022-12-11T11:48:34.177Z,11.75
2022-12-11T11:51:07.020Z,11.88
2022-12-11T11:53:38.052Z,12.15
2022-12-11T11:56:14.019Z,12.68
2022-12-11T11:58:47.111Z,13.63
2022-12-11T12:01:19.021Z,11.90
2022-12-11T12:03:46.985Z,12.93
2022-12-11T12:06:22.376Z,11.43
2022-12-11T12:08:48.960Z,12.32
2022-12-11T12:11:15.602Z,13.38
2022-12-11T12:13:49.428Z,14.13
2022-12-11T12:16:51.520Z,12.35
2022-12-11T12:19:33.317Z,13.45
2022-12-11T12:22:05.162Z,12.20
2022-12-11T12:24:31.860Z,13.63
2022-12-11T12:27:43.692Z,11.30
2022-12-11T12:30:21.804Z,12.38
2022-12-11T12:33:08.282Z,12.65
2022-12-11T12:35:40.114Z,14.45
2022-12-11T12:38:11.102Z,13.68
2022-12-11T12:40:56.690Z,15.75
2022-12-11T12:43:26.012Z,14.60
2022-12-11T12:45:59.048Z,13.15
2022-12-11T12:48:27.082Z,12.73
2022-12-11T12:50:53.678Z,12.57
2022-12-11T12:53:22.498Z,12.98
2022-12-11T12:55:49.616Z,13.30
2022-12-11T12:58:27.678Z,12.80
2022-12-11T13:00:55.058Z,11.68
2022-12-11T13:03:22.977Z,12.20
2022-12-11T13:06:07.229Z,12.73
2022-12-11T13:08:46.155Z,13.35
2022-12-11T13:11:13.887Z,11.80
2022-12-11T13:13:51.552Z,11.80
2022-12-11T13:16:24.416Z,12.75
2022-12-11T13:18:51.577Z,11.52
2022-12-11T13:21:34.952Z,11.93
2022-12-11T13:24:13.787Z,12.23
2022-12-11T13:26:40.548Z,12.32
2022-12-11T13:29:27.189Z,11.63
2022-12-11T13:32:17.186Z,11.25
2022-12-11T13:34:55.333Z,11.50
2022-12-11T13:37:41.857Z,10.88
2022-12-11T13:40:41.100Z,11.77
2022-12-11T13:43:22.484Z,11.10
2022-12-11T13:45:50.423Z,11.10
2022-12-11T13:48:20.351Z,10.77
2022-12-11T13:50:47.440Z,11.00
2022-12-11T13:53:15.580Z,11.15
2022-12-11T13:55:42.294Z,12.52
2022-12-11T13:58:16.365Z,12.00
2022-12-11T14:00:43.164Z,11.32
2022-12-11T14:03:10.768Z,11.30
2022-12-11T14:05:37.602Z,11.15
2022-12-11T14:08:09.120Z,11.05
2022-12-11T14:10:37.087Z,10.52
2022-12-11T14:13:03.805Z,11.55
2022-12-11T14:15:31.432Z,10.82
2022-12-11T14:17:59.366Z,11.02
2022-12-11T14:20:27.940Z,11.35
2022-12-11T14:23:07.762Z,10.02
2022-12-11T14:25:34.388Z,10.70
2022-12-11T14:28:01.764Z,11.00
2022-12-11T14:30:29.802Z,11.38
2022-12-11T14:32:58.371Z,11.15
2022-12-11T14:35:38.611Z,11.13
2022-12-11T14:38:11.063Z,10.25
2022-12-11T14:40:42.408Z,10.75
2022-12-11T14:43:26.443Z,10.65
2022-12-11T14:45:55.728Z,11.18
2022-12-11T14:48:27.842Z,10.65
2022-12-11T14:50:56.256Z,10.45
2022-12-11T14:53:24.361Z,11.55
2022-12-11T14:55:51.833Z,14.55
2022-12-11T14:58:21.486Z,21.13
2022-12-11T15:01:04.941Z,15.88
2022-12-11T15:03:36.598Z,14.63
2022-12-11T15:06:03.984Z,13.05
2022-12-11T15:08:35.834Z,11.45
2022-12-11T15:11:14.529Z,11.63
2022-12-11T15:13:55.271Z,11.35
2022-12-11T15:16:23.318Z,10.07
2022-12-11T15:18:51.464Z,10.73
2022-12-11T15:21:18.864Z,10.05
2022-12-11T15:23:52.508Z,9.98
2022-12-11T15:26:20.361Z,10.45
2022-12-11T15:28:47.172Z,9.95
2022-12-11T15:31:28.018Z,10.18
2022-12-11T15:33:54.805Z,9.60
2022-12-11T15:36:24.620Z,9.68
2022-12-11T15:38:51.382Z,10.75
2022-12-11T15:41:21.113Z,10.63
2022-12-11T15:43:48.037Z,10.20
2022-12-11T15:46:14.821Z,10.00
2022-12-11T15:48:41.502Z,10.02
2022-12-11T15:51:08.948Z,10.52
2022-12-11T15:53:35.657Z,10.48
2022-12-11T15:56:02.564Z,9.60
2022-12-11T15:58:29.994Z,10.35
2022-12-11T16:00:57.861Z,10.90
2022-12-11T16:03:24.890Z,11.32
2022-12-11T16:05:52.358Z,10.18
2022-12-11T16:08:21.295Z,10.18
2022-12-11T16:10:48.425Z,10.57
2022-12-11T16:13:15.308Z,11.23
2022-12-11T16:15:43.400Z,10.95
2022-12-11T16:18:11.499Z,12.43
2022-12-11T16:20:39.196Z,16.63
2022-12-11T16:23:05.964Z,15.88
2022-12-11T16:25:33.270Z,14.60
2022-12-11T16:28:00.841Z,12.32
2022-12-11T16:30:28.104Z,12.40
2022-12-11T16:32:54.938Z,11.85
2022-12-11T16:35:21.891Z,11.90
2022-12-11T16:37:49.431Z,12.75
2022-12-11T16:40:16.123Z,10.73
2022-12-11T16:42:42.836Z,9.70
2022-12-11T16:45:18.383Z,9.98
2022-12-11T16:47:45.164Z,10.00
2022-12-11T16:50:12.520Z,10.55
2022-12-11T16:52:39.335Z,10.43
2022-12-11T16:55:06.296Z,9.77
2022-12-11T16:57:32.990Z,9.07
2022-12-11T16:59:59.660Z,9.43
2022-12-11T17:02:26.303Z,10.00
2022-12-11T17:04:54.175Z,10.27
2022-12-11T17:07:21.025Z,9.48
2022-12-11T17:09:47.865Z,10.13
2022-12-11T17:12:14.450Z,10.38
2022-12-11T17:14:41.165Z,8.63
2022-12-11T17:17:07.811Z,9.10
2022-12-11T17:19:34.935Z,8.38
2022-12-11T17:22:01.743Z,8.65
2022-12-11T17:24:28.533Z,8.52
2022-12-11T17:26:55.893Z,8.35
2022-12-11T17:29:23.531Z,8.20
2022-12-11T17:31:50.275Z,9.25
2022-12-11T17:34:17.024Z,10.77
2022-12-11T17:36:43.752Z,10.65
2022-12-11T17:39:10.489Z,9.48
2022-12-11T17:41:37.192Z,8.88
2022-12-11T17:44:03.859Z,8.65
2022-12-11T17:46:30.521Z,9.02
2022-12-11T17:49:00.090Z,9.02
2022-12-11T17:51:27.214Z,9.32
2022-12-11T17:53:55.870Z,10.57
2022-12-11T17:56:22.835Z,10.70
2022-12-11T17:58:49.673Z,14.05
2022-12-11T18:01:16.545Z,29.67
2022-12-11T18:03:43.197Z,18.52
2022-12-11T18:06:11.537Z,15.05
2022-12-11T18:08:39.053Z,13.85
2022-12-11T18:11:16.282Z,13.38
2022-12-11T18:13:43.556Z,13.38
2022-12-11T18:16:16.758Z,12.20
2022-12-11T18:18:43.779Z,12.55
2022-12-11T18:21:12.743Z,11.45
2022-12-11T18:23:39.431Z,11.35
2022-12-11T18:26:06.057Z,13.27
2022-12-11T18:28:32.761Z,11.20
2022-12-11T18:31:00.874Z,9.77
2022-12-11T18:33:28.000Z,8.00
2022-12-11T18:35:54.871Z,7.20
2022-12-11T18:38:23.353Z,6.57
2022-12-11T18:40:50.348Z,6.50
2022-12-11T18:43:16.940Z,8.38
2022-12-11T18:45:45.633Z,8.80
2022-12-11T18:48:12.893Z,10.73
2022-12-11T18:50:44.005Z,10.13
2022-12-11T18:53:10.645Z,17.23
2022-12-11T18:55:40.867Z,9.38
2022-12-11T18:58:07.477Z,7.38
2022-12-11T19:00:34.193Z,6.72
2022-12-11T19:03:00.849Z,7.05
2022-12-11T19:05:28.689Z,7.07
2022-12-11T19:07:55.338Z,6.97
2022-12-11T19:10:22.052Z,7.88
2022-12-11T19:12:49.369Z,9.48
2022-12-11T19:15:19.584Z,8.32
2022-12-11T19:17:48.882Z,7.72
2022-12-11T19:23:02.178Z,7.60
2022-12-11T19:25:28.870Z,8.68
2022-12-11T19:27:57.066Z,8.43
2022-12-11T19:30:23.915Z,9.15
2022-12-11T19:32:50.759Z,9.63
2022-12-11T19:35:18.281Z,9.35
2022-12-11T19:37:44.994Z,8.38
2022-12-11T19:40:11.739Z,8.57
2022-12-11T19:42:38.340Z,9.27
2022-12-11T19:45:05.105Z,8.48
2022-12-11T19:47:32.010Z,8.30
2022-12-11T19:49:58.696Z,8.60
2022-12-11T19:52:25.446Z,9.18
2022-12-11T19:54:52.155Z,9.68
2022-12-11T19:57:18.884Z,9.70
2022-12-11T19:59:45.698Z,9.30
2022-12-11T20:02:12.358Z,9.80
2022-12-11T20:04:39.147Z,9.48
2022-12-11T20:07:06.778Z,9.40
2022-12-11T20:09:33.793Z,10.65
2022-12-11T20:12:00.400Z,10.30
2022-12-11T20:14:27.295Z,10.18
2022-12-11T20:17:11.368Z,9.57
2022-12-11T20:19:40.471Z,10.82
2022-12-11T20:22:07.491Z,11.10
2022-12-11T20:24:34.214Z,10.77
2022-12-11T20:27:00.894Z,10.40
2022-12-11T20:29:28.032Z,10.98
2022-12-11T20:31:54.781Z,10.45
2022-12-11T20:34:21.387Z,10.13
2022-12-11T20:36:48.554Z,11.27
2022-12-11T20:39:15.677Z,11.20
2022-12-11T20:41:42.317Z,10.07
2022-12-11T20:44:08.958Z,10.65
2022-12-11T20:46:35.597Z,11.00
2022-12-11T20:49:02.251Z,11.40
2022-12-11T20:51:29.193Z,11.27
2022-12-11T20:53:59.683Z,11.23
2022-12-11T20:56:30.928Z,12.18
2022-12-11T20:58:58.425Z,12.45
2022-12-11T21:01:27.121Z,12.48
2022-12-11T21:03:53.900Z,12.00
2022-12-11T21:06:25.911Z,12.52
2022-12-11T21:08:53.032Z,12.43
2022-12-11T21:11:20.125Z,12.48
2022-12-11T21:13:50.206Z,12.90
2022-12-11T21:16:18.130Z,12.75
2022-12-11T21:18:46.474Z,13.38
2022-12-11T21:21:13.473Z,12.27
2022-12-11T21:23:40.235Z,14.00
2022-12-11T21:26:07.119Z,13.60
2022-12-11T21:28:35.725Z,12.73
2022-12-11T21:31:04.172Z,13.55
2022-12-11T21:33:30.846Z,14.85
2022-12-11T21:35:58.088Z,14.50
2022-12-11T21:38:28.215Z,15.07
2022-12-11T21:40:55.568Z,13.93
2022-12-11T21:43:22.714Z,14.27
2022-12-11T21:46:01.064Z,14.68
2022-12-11T21:48:28.585Z,13.63
2022-12-11T21:50:55.352Z,13.90
2022-12-11T21:53:30.064Z,16.35
2022-12-11T21:55:56.718Z,13.98
2022-12-11T21:58:23.293Z,12.88
2022-12-11T22:00:49.966Z,12.60
2022-12-11T22:03:16.603Z,13.82
2022-12-11T22:05:43.362Z,12.75
2022-12-11T22:08:10.009Z,13.85
2022-12-11T22:10:36.739Z,14.65
2022-12-11T22:13:03.384Z,13.88
2022-12-11T22:15:30.131Z,13.63
2022-12-11T22:17:56.733Z,13.43
2022-12-11T22:20:23.369Z,13.55
2022-12-11T22:22:50.017Z,12.68
2022-12-11T22:25:16.914Z,13.32
2022-12-11T22:27:43.510Z,12.70
2022-12-11T22:30:11.323Z,14.68
2022-12-11T22:32:37.878Z,14.07
2022-12-11T22:35:04.702Z,14.45
2022-12-11T22:37:31.491Z,13.55
2022-12-11T22:39:58.145Z,14.40
2022-12-11T22:42:24.960Z,14.32
2022-12-11T22:44:51.646Z,14.70
2022-12-11T22:47:18.713Z,15.07
2022-12-11T22:49:45.482Z,14.93
2022-12-11T22:52:12.331Z,13.73
2022-12-11T22:54:39.767Z,13.80
2022-12-11T22:57:06.387Z,15.13
2022-12-11T22:59:33.004Z,14.10
2022-12-11T23:01:59.754Z,14.52
2022-12-11T23:04:26.398Z,14.80
2022-12-11T23:06:53.100Z,14.93
2022-12-11T23:09:19.735Z,15.55
2022-12-11T23:11:46.374Z,16.33
2022-12-11T23:14:14.799Z,15.15
2022-12-11T23:16:41.879Z,15.73
2022-12-11T23:19:08.871Z,15.57
2022-12-11T23:21:35.508Z,14.95
2022-12-11T23:24:02.152Z,15.13
2022-12-11T23:26:28.803Z,14.90
2022-12-11T23:28:56.356Z,15.38
2022-12-11T23:31:23.821Z,14.88
2022-12-11T23:33:50.704Z,14.93
2022-12-11T23:36:17.413Z,14.63
2022-12-11T23:38:47.178Z,15.35
2022-12-11T23:41:16.367Z,14.48
2022-12-11T23:43:43.106Z,15.07
2022-12-11T23:46:14.522Z,14.10
2022-12-11T23:48:42.132Z,15.88
2022-12-11T23:51:09.770Z,16.63
2022-12-11T23:53:36.419Z,15.63
2022-12-11T23:56:14.503Z,14.02
2022-12-11T23:58:41.525Z,14.68
